Time;durP1;ratioP1;P1;durP2;ratioP2;P2;SDS_P1;SDS_P2;PMS_P1;PMS_P2;Temp;Humidity;BMP_temperature;BMP_pressure;BME280_temperature;BME280_humidity;BME280_pressure;Samples;Min_cycle;Max_cycle;Signal;HPM_P1;HPM_P2
2023/09/04 00:01:45;;;;;;;3.70;3.17;;;15.20;99.90;;;;;;5090229;28;20446;-75
2023/09/04 00:04:11;;;;;;;4.00;3.03;;;;;;;;;;5124414;28;20398;-75
2023/09/04 00:06:36;;;;;;;3.92;3.13;;;15.20;99.90;;;;;;5073709;28;20398;-75
2023/09/04 00:09:04;;;;;;;3.50;2.67;;;15.20;99.90;;;;;;5090453;28;20870;-75
2023/09/04 00:11:30;;;;;;;3.75;2.97;;;15.10;99.90;;;;;;5073318;28;20449;-75
2023/09/04 00:13:55;;;;;;;3.88;2.80;;;15.20;99.90;;;;;;5107418;28;20499;-75
2023/09/04 00:16:21;;;;;;;4.03;2.60;;;15.20;99.90;;;;;;5090263;28;20753;-75
2023/09/04 00:18:47;;;;;;;3.58;2.78;;;15.10;99.90;;;;;;5090483;28;20394;-75
2023/09/04 00:21:13;;;;;;;4.10;3.40;;;15.00;99.90;;;;;;5091076;28;20792;-76
2023/09/04 00:23:39;;;;;;;4.40;3.47;;;15.10;99.90;;;;;;5094184;28;20412;-74
2023/09/04 00:26:04;;;;;;;5.10;3.60;;;15.10;99.90;;;;;;5110838;28;20885;-76
2023/09/04 00:28:30;;;;;;;4.10;3.60;;;14.80;99.90;;;;;;5110991;28;20402;-75
2023/09/04 00:30:57;;;;;;;4.23;3.40;;;14.80;99.90;;;;;;5110714;28;20520;-75
2023/09/04 00:33:23;;;;;;;4.50;3.13;;;14.80;99.90;;;;;;5094093;28;20416;-74
2023/09/04 00:35:49;;;;;;;4.10;3.15;;;14.80;99.90;;;;;;5110714;28;20394;-75
2023/09/04 00:38:15;;;;;;;4.10;3.20;;;;;;;;;;5093718;28;20484;-75
2023/09/04 00:40:41;;;;;;;3.90;2.80;;;14.80;99.90;;;;;;5094018;28;20406;-75
2023/09/04 00:43:07;;;;;;;4.60;3.60;;;14.60;99.90;;;;;;5093928;28;20402;-75
2023/09/04 00:45:35;;;;;;;4.53;3.50;;;14.50;99.90;;;;;;5093779;28;20920;-74
2023/09/04 00:48:01;;;;;;;4.10;3.22;;;14.60;99.90;;;;;;5076856;28;20437;-75
2023/09/04 00:50:27;;;;;;;4.30;3.30;;;14.70;99.90;;;;;;5110394;28;20418;-74
2023/09/04 00:52:59;;;;;;;3.93;3.33;;;14.60;99.90;;;;;;5127718;27;20506;-75
2023/09/04 00:55:25;;;;;;;5.38;3.60;;;14.70;99.90;;;;;;5093283;28;20808;-75
2023/09/04 00:57:52;;;;;;;5.57;3.22;;;14.60;99.90;;;;;;5093552;28;20473;-75
2023/09/04 01:00:22;;;;;;;6.10;3.60;;;14.50;99.90;;;;;;5093379;28;20413;-75
2023/09/04 01:02:48;;;;;;;5.90;3.90;;;14.50;99.90;;;;;;5127921;27;20475;-75
2023/09/04 01:05:13;;;;;;;5.00;3.80;;;14.60;99.90;;;;;;5093504;28;20881;-75
2023/09/04 01:07:44;;;;;;;5.38;3.90;;;14.40;99.90;;;;;;5093223;28;20404;-75
2023/09/04 01:10:10;;;;;;;4.63;3.90;;;;;;;;;;5093028;28;20418;-76
2023/09/04 01:12:50;;;;;;;5.50;4.28;;;14.10;99.90;;;;;;5076427;28;20390;-76
2023/09/04 01:15:16;;;;;;;6.82;4.80;;;14.20;99.90;;;;;;5076189;28;20405;-76
2023/09/04 01:17:44;;;;;;;5.53;4.13;;;13.90;99.90;;;;;;5092812;28;20398;-76
2023/09/04 01:20:21;;;;;;;5.07;4.20;;;14.10;99.90;;;;;;5092843;28;20482;-76
2023/09/04 01:22:46;;;;;;;5.22;4.22;;;14.00;99.90;;;;;;5075850;28;20402;-76
2023/09/04 01:25:15;;;;;;;5.60;4.70;;;14.10;99.90;;;;;;5092618;28;20757;-76
2023/09/04 01:27:48;;;;;;;5.93;4.80;;;13.90;99.90;;;;;;5093145;28;20808;-76
2023/09/04 01:30:27;;;;;;;6.00;4.40;;;13.90;99.90;;;;;;5126800;27;20418;-76
2023/09/04 01:32:59;;;;;;;6.37;4.10;;;14.00;99.90;;;;;;5126719;27;20723;-76
2023/09/04 01:35:26;;;;;;;5.38;4.50;;;14.00;99.90;;;;;;5126797;27;20401;-76
2023/09/04 01:37:52;;;;;;;5.68;4.72;;;14.10;99.90;;;;;;5127207;27;20473;-74
2023/09/04 01:40:18;;;;;;;5.53;4.63;;;14.00;99.90;;;;;;5092738;28;20489;-75
2023/09/04 01:42:44;;;;;;;7.28;4.93;;;13.80;99.90;;;;;;5093326;28;20401;-75
2023/09/04 01:45:09;;;;;;;6.50;4.60;;;13.90;99.90;;;;;;5110181;28;20758;-75
2023/09/04 01:47:35;;;;;;;7.90;5.00;;;13.70;99.90;;;;;;5109764;28;20409;-74
2023/09/04 01:50:03;;;;;;;6.63;5.18;;;;;;;;;;5092265;28;20434;-75
2023/09/04 01:52:29;;;;;;;6.03;4.70;;;13.80;99.90;;;;;;5075970;28;20761;-74
2023/09/04 01:54:54;;;;;;;5.47;4.63;;;13.90;99.90;;;;;;5092598;28;20424;-74
2023/09/04 01:57:20;;;;;;;6.00;4.60;;;13.60;99.90;;;;;;5092978;28;20792;-75
2023/09/04 01:59:46;;;;;;;5.97;4.50;;;13.60;99.90;;;;;;5093087;28;20459;-76
2023/09/04 02:02:11;;;;;;;6.50;4.43;;;13.50;99.90;;;;;;5109374;28;20848;-73
2023/09/04 02:04:37;;;;;;;6.30;4.50;;;13.50;99.90;;;;;;5109340;28;20439;-75
2023/09/04 02:07:03;;;;;;;5.70;4.30;;;13.50;99.90;;;;;;5109232;28;20398;-75
2023/09/04 02:09:28;;;;;;;8.18;4.53;;;13.80;99.90;;;;;;5092782;28;20429;-75
2023/09/04 02:11:54;;;;;;;4.40;3.72;;;13.70;99.90;;;;;;5093143;28;20393;-75
2023/09/04 02:14:20;;;;;;;4.00;3.50;;;13.70;99.90;;;;;;5110174;28;20918;-75
2023/09/04 02:16:45;;;;;;;4.47;3.20;;;13.80;99.90;;;;;;5092668;28;20959;-75
2023/09/04 02:19:11;;;;;;;4.73;3.40;;;13.60;99.90;;;;;;5092275;28;20421;-76
2023/09/04 02:21:37;;;;;;;4.97;3.63;;;13.50;99.90;;;;;;5109796;28;20527;-75
2023/09/04 02:24:02;;;;;;;4.47;3.40;;;13.70;99.90;;;;;;5092235;28;20402;-74
2023/09/04 02:26:28;;;;;;;4.93;3.40;;;13.60;99.90;;;;;;5092495;28;20421;-75
2023/09/04 02:28:54;;;;;;;3.90;3.00;;;13.50;99.90;;;;;;5126940;27;20765;-75
2023/09/04 02:31:20;;;;;;;4.80;3.50;;;13.60;99.90;;;;;;5109178;28;20797;-75
2023/09/04 02:33:45;;;;;;;4.70;4.00;;;13.60;99.90;;;;;;5091984;28;20398;-75
2023/09/04 02:36:11;;;;;;;4.53;3.58;;;;;;;;;;5126430;27;20402;-75
2023/09/04 02:38:37;;;;;;;6.40;3.78;;;13.30;99.90;;;;;;5092211;28;20404;-75
2023/09/04 02:41:03;;;;;;;6.60;4.32;;;13.30;99.90;;;;;;5091836;28;20938;-77
2023/09/04 02:43:29;;;;;;;5.30;3.70;;;13.20;99.90;;;;;;5125598;27;20394;-76
2023/09/04 02:45:57;;;;;;;4.75;3.42;;;13.20;99.90;;;;;;5092043;28;20457;-75
2023/09/04 02:48:23;;;;;;;9.05;4.05;;;13.30;99.90;;;;;;5075202;28;20402;-72
2023/09/04 02:50:48;;;;;;;4.50;3.70;;;13.20;99.90;;;;;;5108371;28;20504;-75
2023/09/04 02:53:14;;;;;;;5.45;3.78;;;13.10;99.90;;;;;;5091889;28;20394;-75
2023/09/04 02:55:40;;;;;;;5.15;4.30;;;;;;;;;;5091822;28;20498;-75
2023/09/04 02:58:06;;;;;;;5.20;3.80;;;13.20;99.90;;;;;;5075085;28;20394;-75
2023/09/04 03:00:32;;;;;;;5.90;4.18;;;13.00;99.90;;;;;;5108756;28;20765;-75
2023/09/04 03:02:57;;;;;;;4.57;3.85;;;13.10;99.90;;;;;;5125548;27;20402;-75
2023/09/04 03:05:25;;;;;;;4.60;3.90;;;12.90;99.90;;;;;;5108671;28;20394;-74
2023/09/04 03:07:51;;;;;;;5.38;4.28;;;13.20;99.90;;;;;;5074296;28;20398;-75
2023/09/04 03:10:17;;;;;;;5.88;3.88;;;13.40;99.90;;;;;;5091679;28;20422;-75
2023/09/04 03:12:43;;;;;;;6.40;3.80;;;13.10;99.90;;;;;;5108778;28;20805;-72
2023/09/04 03:15:09;;;;;;;4.70;3.60;;;13.10;99.90;;;;;;5091273;28;20723;-75
2023/09/04 03:17:35;;;;;;;7.00;3.95;;;13.10;99.90;;;;;;5091725;28;20401;-75
2023/09/04 03:20:04;;;;;;;4.55;3.70;;;;;;;;;;5091764;28;20749;-75
2023/09/04 03:22:30;;;;;;;4.70;3.67;;;13.20;99.90;;;;;;5091332;28;20402;-75
2023/09/04 03:24:55;;;;;;;4.57;3.42;;;13.00;99.90;;;;;;5108699;28;20412;-75
2023/09/04 03:27:21;;;;;;;4.68;3.50;;;;;;;;;;5091580;28;20735;-75
2023/09/04 03:29:47;;;;;;;4.78;3.63;;;13.20;99.90;;;;;;5074720;28;20488;-75
2023/09/04 03:32:13;;;;;;;4.43;3.40;;;;;;;;;;5108236;28;20465;-75
2023/09/04 03:34:39;;;;;;;5.38;3.70;;;;;;;;;;5091931;28;20389;-75
2023/09/04 03:37:06;;;;;;;4.40;3.60;;;;;;;;;;5074603;28;20430;-75
2023/09/04 03:39:39;;;;;;;4.93;3.30;;;12.90;99.90;;;;;;5091134;28;20472;-75
2023/09/04 03:42:06;;;;;;;5.32;3.67;;;13.00;99.90;;;;;;5125183;27;20410;-75
2023/09/04 03:44:31;;;;;;;6.18;3.53;;;12.80;99.90;;;;;;5091438;28;20394;-75
2023/09/04 03:46:57;;;;;;;4.47;3.28;;;13.00;99.90;;;;;;5125668;28;20762;-75
2023/09/04 03:49:23;;;;;;;5.80;4.43;;;;;;;;;;5109113;28;20390;-75
2023/09/04 03:51:49;;;;;;;6.57;4.28;;;12.80;99.90;;;;;;5091891;28;20433;-75
2023/09/04 03:54:15;;;;;;;8.15;4.50;;;12.90;99.90;;;;;;5108019;28;20398;-75
2023/09/04 03:56:41;;;;;;;5.90;4.40;;;;;;;;;;5094693;28;20451;-74
2023/09/04 03:59:07;;;;;;;6.22;4.60;;;12.80;99.90;;;;;;5078132;28;20885;-74
2023/09/04 04:01:33;;;;;;;5.13;4.35;;;12.90;99.90;;;;;;5112435;28;20404;-75
2023/09/04 04:03:59;;;;;;;6.20;3.80;;;12.70;99.90;;;;;;5112421;28;20394;-75
2023/09/04 04:06:25;;;;;;;5.75;3.58;;;12.60;99.90;;;;;;5112238;28;20750;-74
2023/09/04 04:08:54;;;;;;;7.85;3.88;;;12.60;99.90;;;;;;5095188;28;20408;-75
2023/09/04 04:11:20;;;;;;;5.60;3.92;;;12.50;99.90;;;;;;5111935;28;20417;-75
2023/09/04 04:13:46;;;;;;;5.20;3.88;;;;;;;;;;5094733;28;20402;-75
2023/09/04 04:16:12;;;;;;;6.50;3.50;;;12.30;99.90;;;;;;5111856;28;20481;-75
2023/09/04 04:18:38;;;;;;;5.00;3.70;;;12.40;99.90;;;;;;5078093;28;20833;-75
2023/09/04 04:21:04;;;;;;;6.50;4.00;;;12.40;99.90;;;;;;5111868;28;20470;-75
2023/09/04 04:23:30;;;;;;;6.38;4.70;;;;;;;;;;5095181;28;20427;-75
2023/09/04 04:25:56;;;;;;;5.97;3.72;;;;;;;;;;5112120;28;20448;-74
2023/09/04 04:28:22;;;;;;;5.82;3.20;;;12.30;99.90;;;;;;5094528;28;20454;-75
2023/09/04 04:30:48;;;;;;;5.00;3.65;;;;;;;;;;5111153;28;20516;-74
2023/09/04 04:33:14;;;;;;;4.77;3.77;;;;;;;;;;5094185;28;20394;-76
2023/09/04 04:35:40;;;;;;;5.72;3.67;;;;;;;;;;5094777;28;20409;-76
2023/09/04 04:38:07;;;;;;;5.80;3.70;;;;;;;;;;5111703;28;20499;-76
2023/09/04 04:40:33;;;;;;;8.17;3.90;;;12.00;99.90;;;;;;5094643;28;20402;-76
2023/09/04 04:42:59;;;;;;;5.87;3.97;;;;;;;;;;5111264;28;20406;-76
2023/09/04 04:45:25;;;;;;;5.00;3.80;;;;;;;;;;5094787;28;20405;-74
2023/09/04 04:47:51;;;;;;;9.25;8.35;;;;;;;;;;5078027;28;20402;-76
2023/09/04 04:50:17;;;;;;;7.68;6.60;;;;;;;;;;5093982;28;20426;-76
2023/09/04 04:52:43;;;;;;;7.55;5.90;;;;;;;;;;5094578;28;20488;-76
2023/09/04 04:55:09;;;;;;;6.85;5.43;;;;;;;;;;5093784;28;20909;-76
2023/09/04 04:57:36;;;;;;;6.32;5.00;;;;;;;;;;5110829;28;20758;-76
2023/09/04 05:00:06;;;;;;;7.55;5.50;;;;;;;;;;5094937;28;20409;-75
2023/09/04 05:02:36;;;;;;;6.10;4.83;;;;;;;;;;5095349;28;20405;-84
2023/09/04 05:05:03;;;;;;;6.88;4.95;;;11.90;99.90;;;;;;5096134;28;20404;-85
2023/09/04 05:07:29;;;;;;;6.97;4.63;;;;;;;;;;5129679;27;20486;-86
2023/09/04 05:09:56;;;;;;;6.18;4.80;;;11.80;99.90;;;;;;5079540;28;20406;-85
2023/09/04 05:12:23;;;;;;;8.05;5.18;;;12.00;99.90;;;;;;5095705;28;20451;-84
2023/09/04 05:14:49;;;;;;;5.88;4.70;;;;;;;;;;5095633;28;20390;-85
2023/09/04 05:17:15;;;;;;;6.60;4.75;;;;;;;;;;5095405;28;20428;-84
2023/09/04 05:19:41;;;;;;;5.93;4.80;;;11.80;99.90;;;;;;5081285;28;20877;-85
2023/09/04 05:22:09;;;;;;;5.53;4.40;;;12.10;99.90;;;;;;5112212;28;20483;-84
2023/09/04 05:24:35;;;;;;;6.22;4.90;;;;;;;;;;5093953;28;20402;-83
2023/09/04 05:27:03;;;;;;;8.15;5.43;;;12.10;99.90;;;;;;5094073;28;20402;-84
2023/09/04 05:29:29;;;;;;;6.32;4.72;;;;;;;;;;5077938;28;20433;-84
2023/09/04 05:31:56;;;;;;;7.03;4.90;;;12.30;99.90;;;;;;5094285;28;20424;-83
2023/09/04 05:34:22;;;;;;;6.40;4.50;;;;;;;;;;5094032;28;20402;-84
2023/09/04 05:36:47;;;;;;;5.65;4.65;;;12.30;99.90;;;;;;5077220;28;20394;-84
2023/09/04 05:39:14;;;;;;;7.50;5.35;;;;;;;;;;5095554;28;20469;-84
2023/09/04 05:41:40;;;;;;;9.15;6.22;;;;;;;;;;5094452;28;20410;-84
2023/09/04 05:44:06;;;;;;;7.55;5.45;;;12.50;99.90;;;;;;5094224;28;20437;-84
2023/09/04 05:46:31;;;;;;;8.90;5.65;;;12.50;99.90;;;;;;5111301;28;20967;-85
2023/09/04 05:48:57;;;;;;;10.80;6.97;;;;;;;;;;5094161;28;20898;-84
2023/09/04 05:51:24;;;;;;;9.50;6.95;;;;;;;;;;5110667;28;20422;-83
2023/09/04 05:53:50;;;;;;;9.80;7.97;;;12.90;99.90;;;;;;5094302;28;20397;-84
2023/09/04 05:56:17;;;;;;;8.47;6.80;;;13.00;99.90;;;;;;5128461;27;20414;-85
2023/09/04 05:58:48;;;;;;;10.55;7.72;;;13.00;99.90;;;;;;5095664;28;20394;-83
2023/09/04 06:01:14;;;;;;;10.20;7.57;;;;;;;;;;5095045;28;20409;-84
2023/09/04 06:03:40;;;;;;;7.72;6.35;;;13.40;99.90;;;;;;5094801;28;20406;-83
2023/09/04 06:06:07;;;;;;;7.68;5.82;;;;;;;;;;5129188;27;20398;-83
2023/09/04 06:08:33;;;;;;;7.90;5.75;;;13.20;99.90;;;;;;5078296;28;20393;-83
2023/09/04 06:11:00;;;;;;;7.15;5.38;;;13.50;99.90;;;;;;5094795;28;20482;-83
2023/09/04 06:13:26;;;;;;;6.90;5.60;;;13.40;99.90;;;;;;5110573;28;20430;-85
2023/09/04 06:15:52;;;;;;;10.25;7.00;;;13.60;99.90;;;;;;5093102;28;20475;-84
2023/09/04 06:18:21;;;;;;;8.20;6.50;;;13.60;99.90;;;;;;5109818;28;20480;-85
2023/09/04 06:20:47;;;;;;;7.93;6.32;;;13.80;99.90;;;;;;5110474;28;20421;-85
2023/09/04 06:23:13;;;;;;;10.60;8.27;;;14.00;99.90;;;;;;5127844;27;20406;-84
2023/09/04 06:25:43;;;;;;;12.23;9.70;;;14.10;99.90;;;;;;5093752;28;20419;-84
2023/09/04 06:28:13;;;;;;;12.32;8.77;;;14.10;99.90;;;;;;5110397;28;20420;-84
2023/09/04 06:30:39;;;;;;;12.88;9.65;;;14.30;99.90;;;;;;5092842;28;20428;-84
2023/09/04 06:33:05;;;;;;;12.57;9.25;;;14.40;99.90;;;;;;5093044;28;20947;-82
2023/09/04 06:35:31;;;;;;;12.25;8.90;;;14.50;99.90;;;;;;5110981;28;20402;-85
2023/09/04 06:37:58;;;;;;;11.53;9.20;;;14.80;99.90;;;;;;5094011;28;20401;-84
2023/09/04 06:40:25;;;;;;;15.32;9.40;;;14.80;99.90;;;;;;5094769;28;20406;-85
2023/09/04 06:42:53;;;;;;;10.82;8.90;;;15.00;99.90;;;;;;5094605;28;20398;-85
2023/09/04 06:45:20;;;;;;;12.35;8.63;;;14.90;99.90;;;;;;5109178;28;20798;-75
2023/09/04 06:47:46;;;;;;;10.93;8.57;;;15.00;99.90;;;;;;5092296;28;20409;-77
2023/09/04 06:50:12;;;;;;;10.60;8.40;;;15.50;99.90;;;;;;5092230;28;20422;-75
2023/09/04 06:52:38;;;;;;;11.77;8.55;;;15.40;99.90;;;;;;5109321;28;20405;-76
2023/09/04 06:55:05;;;;;;;10.95;8.18;;;15.50;99.90;;;;;;5092137;28;20418;-77
2023/09/04 06:57:31;;;;;;;13.32;8.10;;;15.40;99.90;;;;;;5092443;28;20447;-76
2023/09/04 06:59:57;;;;;;;10.25;7.72;;;15.70;99.90;;;;;;5126137;27;20746;-75
2023/09/04 07:02:23;;;;;;;10.32;8.10;;;16.00;99.90;;;;;;5092416;28;20378;-77
2023/09/04 07:04:49;;;;;;;12.05;8.00;;;16.00;99.90;;;;;;5092036;28;20397;-76
2023/09/04 07:07:14;;;;;;;14.18;7.75;;;16.10;99.90;;;;;;5091855;28;20905;-75
2023/09/04 07:09:40;;;;;;;10.18;7.65;;;16.20;99.90;;;;;;5091192;28;20398;-76
2023/09/04 07:12:07;;;;;;;9.33;6.77;;;16.40;99.90;;;;;;5126241;27;20451;-75
2023/09/04 07:14:32;;;;;;;9.52;6.95;;;16.80;99.90;;;;;;5108904;28;20402;-75
2023/09/04 07:16:59;;;;;;;8.50;6.83;;;17.00;99.90;;;;;;5092273;28;20514;-76
2023/09/04 07:19:25;;;;;;;9.70;7.03;;;16.80;99.90;;;;;;5126535;27;20398;-76
2023/09/04 07:21:50;;;;;;;8.23;6.47;;;17.00;99.90;;;;;;5109442;28;20409;-85
2023/09/04 07:24:16;;;;;;;7.97;6.67;;;17.40;99.90;;;;;;5109879;28;20406;-85
2023/09/04 07:26:42;;;;;;;8.50;6.78;;;17.40;99.90;;;;;;5120361;28;20405;-85
2023/09/04 07:29:08;;;;;;;7.80;6.20;;;17.40;99.90;;;;;;5100178;28;20410;-75
2023/09/04 07:31:34;;;;;;;11.48;5.78;;;17.40;99.90;;;;;;5090842;28;21031;-75
2023/09/04 07:34:01;;;;;;;8.13;6.07;;;17.50;99.90;;;;;;5091328;28;20735;-78
2023/09/04 07:36:27;;;;;;;6.40;5.20;;;18.10;99.90;;;;;;5108251;28;20409;-77
2023/09/04 07:38:52;;;;;;;5.97;5.03;;;18.20;99.90;;;;;;5108020;28;20393;-76
2023/09/04 07:41:18;;;;;;;7.18;5.10;;;18.40;99.90;;;;;;5108745;28;20402;-76
2023/09/04 07:43:44;;;;;;;6.60;5.57;;;19.00;99.90;;;;;;5093163;28;20401;-76
2023/09/04 07:46:09;;;;;;;5.90;4.93;;;18.60;99.90;;;;;;5091276;28;20390;-75
2023/09/04 07:48:35;;;;;;;5.47;4.15;;;18.60;99.90;;;;;;5091142;28;20466;-76
2023/09/04 07:51:03;;;;;;;6.53;4.38;;;18.80;99.90;;;;;;5107899;28;20782;-75
2023/09/04 07:53:29;;;;;;;8.10;4.60;;;18.90;99.90;;;;;;5108313;28;20386;-75
2023/09/04 07:55:55;;;;;;;7.22;4.68;;;19.20;99.90;;;;;;5091157;28;20410;-73
2023/09/04 07:58:21;;;;;;;5.70;4.07;;;19.00;99.90;;;;;;5091488;28;20436;-76
2023/09/04 08:00:48;;;;;;;5.85;4.20;;;19.40;99.90;;;;;;5074337;28;20414;-76
2023/09/04 08:03:15;;;;;;;5.80;4.10;;;19.90;99.90;;;;;;5074538;28;20421;-76
2023/09/04 08:05:41;;;;;;;5.57;3.90;;;19.80;99.90;;;;;;5074292;28;20514;-76
2023/09/04 08:08:09;;;;;;;6.93;4.10;;;20.30;99.90;;;;;;5091226;28;20932;-76
2023/09/04 08:10:43;;;;;;;5.70;4.10;;;19.80;99.90;;;;;;5107958;28;20803;-77
2023/09/04 08:13:11;;;;;;;6.35;3.90;;;19.50;99.90;;;;;;5107905;28;20398;-76
2023/09/04 08:15:37;;;;;;;5.97;3.88;;;20.20;99.90;;;;;;5074222;28;20394;-76
2023/09/04 08:18:03;;;;;;;5.57;3.92;;;20.00;99.90;;;;;;5125043;28;20386;-76
2023/09/04 08:20:29;;;;;;;5.70;3.88;;;19.70;99.90;;;;;;5108399;28;20746;-76
2023/09/04 08:22:55;;;;;;;7.47;4.00;;;20.00;99.90;;;;;;5108257;28;20433;-75
2023/09/04 08:25:21;;;;;;;8.38;3.85;;;20.40;99.90;;;;;;5090519;28;20402;-76
2023/09/04 08:27:46;;;;;;;6.22;3.35;;;20.20;99.90;;;;;;5109001;28;20472;-76
2023/09/04 08:30:12;;;;;;;7.27;3.30;;;20.50;99.90;;;;;;5091214;28;20506;-76
2023/09/04 08:32:38;;;;;;;5.87;3.20;;;20.90;99.90;;;;;;5108256;28;20459;-76
2023/09/04 08:35:05;;;;;;;5.57;3.08;;;21.10;99.90;;;;;;5091033;28;20898;-76
2023/09/04 08:37:31;;;;;;;5.30;3.38;;;21.40;99.90;;;;;;5074137;28;20800;-77
2023/09/04 08:39:56;;;;;;;7.57;3.10;;;21.00;99.90;;;;;;5091051;28;20398;-77
2023/09/04 08:42:22;;;;;;;3.80;2.53;;;21.60;99.90;;;;;;5092139;28;20397;-76
2023/09/04 08:44:50;;;;;;;5.63;3.00;;;21.60;99.90;;;;;;5111553;28;20398;-76
2023/09/04 08:47:18;;;;;;;6.50;2.90;;;21.30;99.90;;;;;;5077791;28;20398;-74
2023/09/04 08:49:44;;;;;;;8.20;2.60;;;21.40;99.90;;;;;;5128079;27;20897;-75
2023/09/04 08:52:11;;;;;;;4.38;2.70;;;21.30;99.90;;;;;;5111261;28;20406;-77
2023/09/04 08:54:37;;;;;;;4.72;2.90;;;21.30;99.90;;;;;;5128560;27;20492;-77
2023/09/04 08:57:04;;;;;;;4.43;2.70;;;21.00;99.90;;;;;;5094238;28;20485;-77
2023/09/04 08:59:29;;;;;;;3.75;2.35;;;21.30;99.90;;;;;;5128586;27;20890;-74
2023/09/04 09:01:56;;;;;;;4.60;2.70;;;21.10;99.90;;;;;;5110847;28;20515;-75
2023/09/04 09:04:22;;;;;;;4.53;2.40;;;21.30;99.90;;;;;;5111052;28;20398;-75
2023/09/04 09:06:52;;;;;;;4.37;2.40;;;21.50;99.90;;;;;;5111041;28;20901;-75
2023/09/04 09:09:23;;;;;;;5.63;2.70;;;21.50;99.90;;;;;;5127868;27;20398;-75
2023/09/04 09:11:54;;;;;;;4.23;2.47;;;22.00;99.90;;;;;;5093372;28;20925;-76
2023/09/04 09:14:28;;;;;;;5.07;2.50;;;21.70;99.90;;;;;;5109976;28;20398;-76
2023/09/04 09:17:08;;;;;;;4.20;2.53;;;21.30;99.90;;;;;;5093610;28;20406;-75
2023/09/04 09:19:38;;;;;;;5.00;2.53;;;21.50;99.90;;;;;;5093382;28;20939;-76
2023/09/04 09:22:14;;;;;;;4.05;2.38;;;22.00;99.90;;;;;;5110536;28;20413;-76
2023/09/04 09:24:52;;;;;;;4.20;2.30;;;22.30;99.90;;;;;;5093499;28;20405;-77
2023/09/04 09:27:19;;;;;;;5.33;2.30;;;22.20;99.90;;;;;;5111286;28;20394;-86
2023/09/04 09:29:46;;;;;;;4.28;2.45;;;22.60;99.90;;;;;;5129650;27;20676;-85
2023/09/04 09:32:12;;;;;;;4.53;2.42;;;22.70;99.90;;;;;;5112866;28;20409;-86
2023/09/04 09:34:39;;;;;;;4.18;2.20;;;22.90;99.90;;;;;;5094885;28;20886;-85
2023/09/04 09:37:08;;;;;;;4.45;2.30;;;23.10;99.90;;;;;;5111236;28;20405;-86
2023/09/04 09:39:34;;;;;;;3.50;2.10;;;22.80;99.90;;;;;;5112341;28;20405;-84
2023/09/04 09:42:01;;;;;;;3.45;2.17;;;22.40;99.90;;;;;;5094971;28;20478;-84
2023/09/04 09:44:33;;;;;;;3.80;2.27;;;22.90;99.90;;;;;;5078469;28;20393;-85
2023/09/04 09:46:59;;;;;;;3.22;2.10;;;23.10;99.90;;;;;;5078453;28;20746;-83
2023/09/04 09:49:25;;;;;;;5.32;2.20;;;23.30;99.90;;;;;;5111688;28;20394;-83
2023/09/04 09:51:54;;;;;;;6.78;2.17;;;23.10;99.90;;;;;;5094329;28;20913;-83
2023/09/04 09:54:42;;;;;;;3.65;2.10;;;23.70;99.90;;;;;;5110600;28;20993;-84
2023/09/04 09:57:16;;;;;;;4.63;2.10;;;23.30;99.90;;;;;;5128336;27;20430;-84
2023/09/04 09:59:49;;;;;;;4.00;2.10;;;23.60;99.90;;;;;;5077272;28;20433;-83
2023/09/04 10:02:22;;;;;;;2.47;1.73;;;23.20;99.90;;;;;;5094328;28;20398;-84
2023/09/04 10:04:48;;;;;;;4.00;1.90;;;23.30;99.90;;;;;;5133396;27;20909;-83
2023/09/04 10:07:17;;;;;;;3.57;2.10;;;23.40;99.90;;;;;;5112044;28;20394;-84
2023/09/04 10:09:51;;;;;;;3.53;2.08;;;23.30;99.90;;;;;;5094144;28;20394;-83
2023/09/04 10:12:42;;;;;;;5.22;2.03;;;23.40;99.90;;;;;;5127743;27;20399;-83
2023/09/04 10:15:09;;;;;;;3.88;1.80;;;23.60;99.90;;;;;;5127839;27;20452;-83
2023/09/04 10:17:58;;;;;;;3.33;2.03;;;23.80;99.90;;;;;;5110343;28;20422;-83
2023/09/04 10:20:26;;;;;;;3.80;1.83;;;23.80;99.90;;;;;;5110086;28;20413;-84
2023/09/04 10:23:07;;;;;;;2.42;1.60;;;24.00;99.90;;;;;;5077181;28;20404;-84
2023/09/04 10:25:59;;;;;;;3.97;1.90;;;23.40;99.90;;;;;;5093608;28;20397;-84
2023/09/04 10:28:32;;;;;;;3.60;2.05;;;23.00;99.90;;;;;;5126499;27;20394;-83
2023/09/04 10:31:00;;;;;;;4.55;2.10;;;23.30;99.90;;;;;;5081763;28;20469;-83
2023/09/04 10:33:26;;;;;;;4.60;1.90;;;23.70;99.90;;;;;;5138878;27;20406;-83
2023/09/04 10:35:54;;;;;;;2.70;1.80;;;24.00;99.90;;;;;;5121789;28;20398;-83
2023/09/04 10:38:21;;;;;;;3.20;1.95;;;24.10;99.90;;;;;;5096009;28;20398;-82
2023/09/04 10:40:47;;;;;;;4.40;2.00;;;24.50;99.90;;;;;;5111106;28;20398;-83
2023/09/04 10:43:13;;;;;;;3.93;1.90;;;23.80;99.90;;;;;;5128245;27;20429;-83
2023/09/04 10:45:38;;;;;;;4.17;2.00;;;23.90;99.90;;;;;;5110710;28;20455;-83
2023/09/04 10:48:05;;;;;;;3.58;2.17;;;23.90;99.90;;;;;;5091817;28;20396;-82
2023/09/04 10:50:38;;;;;;;2.75;1.70;;;23.40;99.90;;;;;;5114818;28;20425;-82
2023/09/04 10:53:06;;;;;;;3.90;2.10;;;23.80;99.90;;;;;;5102270;28;20406;-76
2023/09/04 10:55:38;;;;;;;3.80;2.00;;;23.70;99.90;;;;;;5109287;28;20433;-75
2023/09/04 10:58:06;;;;;;;4.05;2.10;;;24.00;99.90;;;;;;5126403;27;20401;-75
2023/09/04 11:00:39;;;;;;;2.80;1.88;;;23.80;99.90;;;;;;5074641;28;20406;-76
2023/09/04 11:03:31;;;;;;;3.78;2.00;;;24.50;99.90;;;;;;5108973;28;20402;-75
2023/09/04 11:06:04;;;;;;;4.30;1.92;;;24.60;99.90;;;;;;5091177;28;20406;-75
2023/09/04 11:08:34;;;;;;;4.10;2.00;;;24.80;99.90;;;;;;5092255;28;20406;-75
2023/09/04 11:11:07;;;;;;;3.53;2.20;;;25.00;99.90;;;;;;5126913;27;20418;-75
2023/09/04 11:13:33;;;;;;;3.97;2.20;;;24.80;99.90;;;;;;5092358;28;20417;-75
2023/09/04 11:16:04;;;;;;;3.47;2.00;;;24.60;99.90;;;;;;5075142;28;20877;-72
2023/09/04 11:18:35;;;;;;;3.72;1.98;;;24.20;99.90;;;;;;5091196;28;20428;-74
2023/09/04 11:21:01;;;;;;;3.70;2.20;;;24.30;99.90;;;;;;5107843;28;20405;-74
2023/09/04 11:23:28;;;;;;;3.88;2.17;;;24.60;99.90;;;;;;5075324;28;20409;-76
2023/09/04 11:25:54;;;;;;;3.47;1.90;;;25.00;99.90;;;;;;5092109;28;20444;-75
2023/09/04 11:28:23;;;;;;;3.60;2.08;;;25.30;99.90;;;;;;5126368;27;20496;-76
2023/09/04 11:31:07;;;;;;;4.17;1.73;;;25.30;99.90;;;;;;5108914;28;20485;-76
2023/09/04 11:33:33;;;;;;;2.83;1.80;;;25.20;99.90;;;;;;5108769;28;20719;-76
2023/09/04 11:36:03;;;;;;;3.17;2.00;;;25.20;99.90;;;;;;5108309;28;20401;-76
2023/09/04 11:38:31;;;;;;;3.08;1.80;;;25.10;99.90;;;;;;5125868;27;20483;-76
2023/09/04 11:40:57;;;;;;;2.95;1.83;;;25.50;99.90;;;;;;5075360;28;20455;-75
2023/09/04 11:43:27;;;;;;;3.60;2.00;;;25.30;99.90;;;;;;5091883;28;20925;-76
2023/09/04 11:45:57;;;;;;;3.00;1.70;;;25.00;99.90;;;;;;5074823;28;20437;-76
2023/09/04 11:48:27;;;;;;;3.08;1.80;;;25.30;99.90;;;;;;5074488;28;20430;-77
2023/09/04 11:50:54;;;;;;;4.68;1.92;;;25.60;99.90;;;;;;5108435;28;20422;-76
2023/09/04 11:53:21;;;;;;;3.10;1.70;;;25.50;99.90;;;;;;5107966;28;20901;-76
2023/09/04 11:55:47;;;;;;;4.35;1.90;;;26.10;99.90;;;;;;5125252;28;20410;-76
2023/09/04 11:58:13;;;;;;;5.00;1.70;;;26.10;99.90;;;;;;5090881;28;20409;-76
2023/09/04 12:00:42;;;;;;;3.80;1.65;;;25.90;99.90;;;;;;5091727;28;20483;-76
2023/09/04 12:03:08;;;;;;;3.20;1.80;;;26.10;99.90;;;;;;5090771;28;20636;-77
2023/09/04 12:05:35;;;;;;;4.38;1.85;;;25.60;99.90;;;;;;5091471;28;20901;-83
2023/09/04 12:08:02;;;;;;;3.50;1.85;;;25.50;99.90;;;;;;5109553;28;20405;-83
2023/09/04 12:10:28;;;;;;;2.17;1.45;;;26.10;99.90;;;;;;5126317;27;20426;-82
2023/09/04 12:12:54;;;;;;;4.10;1.90;;;26.10;99.90;;;;;;5109254;28;20409;-83
2023/09/04 12:15:31;;;;;;;3.40;1.65;;;26.10;99.90;;;;;;5092590;28;20408;-84
2023/09/04 12:18:05;;;;;;;2.90;1.70;;;25.90;99.90;;;;;;5130668;27;20402;-82
2023/09/04 12:20:41;;;;;;;3.78;1.60;;;26.30;99.90;;;;;;5130940;27;20405;-82
2023/09/04 12:23:07;;;;;;;2.83;1.55;;;26.50;99.90;;;;;;5096356;28;20416;-83
2023/09/04 12:25:39;;;;;;;2.80;1.60;;;26.60;99.90;;;;;;5096276;28;20388;-83
2023/09/04 12:28:07;;;;;;;5.15;1.90;;;26.80;99.90;;;;;;5079254;28;20408;-83
2023/09/04 12:30:37;;;;;;;2.80;1.60;;;26.40;99.90;;;;;;5130259;27;20444;-83
2023/09/04 12:33:06;;;;;;;3.20;1.75;;;26.70;99.90;;;;;;5112844;28;20492;-83
2023/09/04 12:35:32;;;;;;;2.35;1.42;;;26.20;99.90;;;;;;5112716;28;20741;-82
2023/09/04 12:37:58;;;;;;;2.10;1.50;;;26.70;99.90;;;;;;5094868;28;20481;-83
2023/09/04 12:40:24;;;;;;;3.65;1.58;;;26.70;99.60;;;;;;5078426;28;20498;-82
2023/09/04 12:42:50;;;;;;;3.70;1.60;;;27.20;99.80;;;;;;5095756;28;20474;-83
2023/09/04 12:45:18;;;;;;;2.30;1.60;;;27.30;98.10;;;;;;5113132;28;20442;-82
2023/09/04 12:47:44;;;;;;;2.17;1.35;;;26.80;98.50;;;;;;5129413;27;20973;-82
2023/09/04 12:50:10;;;;;;;3.43;1.60;;;26.50;98.70;;;;;;5095395;28;20405;-82
2023/09/04 12:52:36;;;;;;;3.35;1.52;;;27.00;99.20;;;;;;5095730;28;20735;-83
2023/09/04 12:55:03;;;;;;;1.93;1.30;;;26.60;98.40;;;;;;5112025;28;20401;-81
2023/09/04 12:57:29;;;;;;;3.03;1.40;;;26.60;97.90;;;;;;5129450;27;20401;-82
2023/09/04 12:59:55;;;;;;;2.97;1.67;;;27.00;97.90;;;;;;5094562;28;20406;-81
2023/09/04 13:02:23;;;;;;;2.20;1.40;;;26.20;97.40;;;;;;5128469;27;20406;-82